sensor_id;sensor_type;location;lat;lon;timestamp;temperature;humidity
68648;SHT31;55632;51.962;16.116;2023-02-01T00:04:45;3.37;88.81
68648;SHT31;55632;51.962;16.116;2023-02-01T00:09:49;3.34;88.83
68648;SHT31;55632;51.962;16.116;2023-02-01T00:14:50;3.34;88.76
68648;SHT31;55632;51.962;16.116;2023-02-01T00:19:51;3.37;88.69
68648;SHT31;55632;51.962;16.116;2023-02-01T00:24:52;3.44;88.39
68648;SHT31;55632;51.962;16.116;2023-02-01T00:29:55;3.48;88.17
68648;SHT31;55632;51.962;16.116;2023-02-01T00:34:56;3.55;87.70
68648;SHT31;55632;51.962;16.116;2023-02-01T00:39:56;3.60;87.49
68648;SHT31;55632;51.962;16.116;2023-02-01T00:44:57;3.62;87.29
68648;SHT31;55632;51.962;16.116;2023-02-01T00:49:58;3.67;87.24
68648;SHT31;55632;51.962;16.116;2023-02-01T00:55:03;3.69;87.31
68648;SHT31;55632;51.962;16.116;2023-02-01T01:00:04;3.77;87.10
68648;SHT31;55632;51.962;16.116;2023-02-01T01:05:12;3.81;86.92
68648;SHT31;55632;51.962;16.116;2023-02-01T01:10:12;3.85;86.75
68648;SHT31;55632;51.962;16.116;2023-02-01T01:15:13;3.89;86.42
68648;SHT31;55632;51.962;16.116;2023-02-01T01:20:14;3.88;86.30
68648;SHT31;55632;51.962;16.116;2023-02-01T01:25:15;3.85;86.23
68648;SHT31;55632;51.962;16.116;2023-02-01T01:30:15;3.82;86.27
68648;SHT31;55632;51.962;16.116;2023-02-01T01:35:16;3.81;86.29
68648;SHT31;55632;51.962;16.116;2023-02-01T01:40:17;3.83;86.27
68648;SHT31;55632;51.962;16.116;2023-02-01T01:45:26;3.89;86.23
68648;SHT31;55632;51.962;16.116;2023-02-01T01:50:30;3.89;86.29
68648;SHT31;55632;51.962;16.116;2023-02-01T01:55:36;3.89;86.41
68648;SHT31;55632;51.962;16.116;2023-02-01T02:00:38;3.92;86.34
68648;SHT31;55632;51.962;16.116;2023-02-01T02:05:39;3.93;86.24
68648;SHT31;55632;51.962;16.116;2023-02-01T02:10:40;3.97;86.21
68648;SHT31;55632;51.962;16.116;2023-02-01T02:42:19;3.83;85.51
68648;SHT31;55632;51.962;16.116;2023-02-01T02:53:22;3.88;85.08
68648;SHT31;55632;51.962;16.116;2023-02-01T02:58:45;3.89;84.77
68648;SHT31;55632;51.962;16.116;2023-02-01T03:04:06;3.88;84.85
68648;SHT31;55632;51.962;16.116;2023-02-01T03:09:34;3.86;84.73
68648;SHT31;55632;51.962;16.116;2023-02-01T03:14:38;3.85;84.69
68648;SHT31;55632;51.962;16.116;2023-02-01T03:19:45;3.85;84.71
68648;SHT31;55632;51.962;16.116;2023-02-01T03:24:56;3.83;84.71
68648;SHT31;55632;51.962;16.116;2023-02-01T03:30:11;3.82;84.58
68648;SHT31;55632;51.962;16.116;2023-02-01T03:35:23;3.85;84.54
68648;SHT31;55632;51.962;16.116;2023-02-01T03:40:28;3.83;84.49
68648;SHT31;55632;51.962;16.116;2023-02-01T03:45:36;3.81;84.49
68648;SHT31;55632;51.962;16.116;2023-02-01T03:50:46;3.83;84.54
68648;SHT31;55632;51.962;16.116;2023-02-01T03:55:49;3.86;84.53
68648;SHT31;55632;51.962;16.116;2023-02-01T04:00:55;3.89;84.44
68648;SHT31;55632;51.962;16.116;2023-02-01T04:05:56;3.95;84.28
68648;SHT31;55632;51.962;16.116;2023-02-01T04:11:00;3.96;84.05
68648;SHT31;55632;51.962;16.116;2023-02-01T04:16:01;3.92;83.98
68648;SHT31;55632;51.962;16.116;2023-02-01T04:21:02;3.93;84.01
68648;SHT31;55632;51.962;16.116;2023-02-01T04:26:04;3.92;83.96
68648;SHT31;55632;51.962;16.116;2023-02-01T04:31:05;3.90;83.87
68648;SHT31;55632;51.962;16.116;2023-02-01T04:36:06;3.90;83.77
68648;SHT31;55632;51.962;16.116;2023-02-01T04:41:07;3.89;83.81
68648;SHT31;55632;51.962;16.116;2023-02-01T04:46:07;3.86;83.70
68648;SHT31;55632;51.962;16.116;2023-02-01T04:51:08;3.86;83.74
68648;SHT31;55632;51.962;16.116;2023-02-01T04:56:10;3.93;83.60
68648;SHT31;55632;51.962;16.116;2023-02-01T05:01:11;3.92;83.45
68648;SHT31;55632;51.962;16.116;2023-02-01T05:06:12;3.92;83.52
68648;SHT31;55632;51.962;16.116;2023-02-01T05:11:12;3.96;83.51
68648;SHT31;55632;51.962;16.116;2023-02-01T05:16:32;3.96;83.48
68648;SHT31;55632;51.962;16.116;2023-02-01T05:21:32;3.99;83.43
68648;SHT31;55632;51.962;16.116;2023-02-01T05:26:33;4.03;83.42
68648;SHT31;55632;51.962;16.116;2023-02-01T05:31:34;4.05;83.28
68648;SHT31;55632;51.962;16.116;2023-02-01T05:36:35;4.09;83.27
68648;SHT31;55632;51.962;16.116;2023-02-01T05:41:36;4.10;83.23
68648;SHT31;55632;51.962;16.116;2023-02-01T05:46:37;4.14;83.07
68648;SHT31;55632;51.962;16.116;2023-02-01T05:51:37;4.17;83.02
68648;SHT31;55632;51.962;16.116;2023-02-01T05:56:38;4.17;82.85
68648;SHT31;55632;51.962;16.116;2023-02-01T06:01:40;4.14;82.87
68648;SHT31;55632;51.962;16.116;2023-02-01T06:06:42;4.17;82.82
68648;SHT31;55632;51.962;16.116;2023-02-01T06:11:42;4.21;82.75
68648;SHT31;55632;51.962;16.116;2023-02-01T06:16:43;4.25;82.76
68648;SHT31;55632;51.962;16.116;2023-02-01T06:21:46;4.27;82.74
68648;SHT31;55632;51.962;16.116;2023-02-01T06:26:47;4.30;82.70
68648;SHT31;55632;51.962;16.116;2023-02-01T06:31:48;4.34;82.60
68648;SHT31;55632;51.962;16.116;2023-02-01T06:36:48;4.40;82.42
68648;SHT31;55632;51.962;16.116;2023-02-01T06:41:50;4.41;82.25
68648;SHT31;55632;51.962;16.116;2023-02-01T06:46:51;4.47;82.07
68648;SHT31;55632;51.962;16.116;2023-02-01T06:51:51;4.54;81.91
68648;SHT31;55632;51.962;16.116;2023-02-01T06:56:52;4.55;81.93
68648;SHT31;55632;51.962;16.116;2023-02-01T07:01:53;4.57;81.81
68648;SHT31;55632;51.962;16.116;2023-02-01T07:06:53;4.58;81.86
68648;SHT31;55632;51.962;16.116;2023-02-01T07:11:54;4.58;81.71
68648;SHT31;55632;51.962;16.116;2023-02-01T07:16:55;4.59;81.70
68648;SHT31;55632;51.962;16.116;2023-02-01T07:21:55;4.61;81.49
68648;SHT31;55632;51.962;16.116;2023-02-01T07:26:56;4.62;81.46
68648;SHT31;55632;51.962;16.116;2023-02-01T07:31:57;4.66;81.43
68648;SHT31;55632;51.962;16.116;2023-02-01T07:36:58;4.73;81.39
68648;SHT31;55632;51.962;16.116;2023-02-01T07:41:59;4.80;81.20
68648;SHT31;55632;51.962;16.116;2023-02-01T07:47:00;4.87;81.07
68648;SHT31;55632;51.962;16.116;2023-02-01T07:52:00;4.90;81.15
68648;SHT31;55632;51.962;16.116;2023-02-01T07:57:01;4.93;81.57
68648;SHT31;55632;51.962;16.116;2023-02-01T08:02:02;4.87;81.93
68648;SHT31;55632;51.962;16.116;2023-02-01T08:07:03;4.80;82.25
68648;SHT31;55632;51.962;16.116;2023-02-01T08:12:03;4.80;82.66
68648;SHT31;55632;51.962;16.116;2023-02-01T08:17:04;4.80;82.85
68648;SHT31;55632;51.962;16.116;2023-02-01T08:22:05;4.80;83.15
68648;SHT31;55632;51.962;16.116;2023-02-01T08:27:07;4.76;83.17
68648;SHT31;55632;51.962;16.116;2023-02-01T08:32:08;4.77;83.38
68648;SHT31;55632;51.962;16.116;2023-02-01T08:37:08;4.76;83.70
68648;SHT31;55632;51.962;16.116;2023-02-01T08:42:11;4.83;83.72
68648;SHT31;55632;51.962;16.116;2023-02-01T08:47:30;4.92;83.89
68648;SHT31;55632;51.962;16.116;2023-02-01T08:52:31;4.94;83.81
68648;SHT31;55632;51.962;16.116;2023-02-01T08:57:33;4.99;83.52
68648;SHT31;55632;51.962;16.116;2023-02-01T09:02:34;4.99;83.54
68648;SHT31;55632;51.962;16.116;2023-02-01T09:07:35;4.97;83.54
68648;SHT31;55632;51.962;16.116;2023-02-01T09:12:36;5.03;83.56
68648;SHT31;55632;51.962;16.116;2023-02-01T09:17:38;5.13;83.54
68648;SHT31;55632;51.962;16.116;2023-02-01T09:22:40;5.14;83.57
68648;SHT31;55632;51.962;16.116;2023-02-01T09:27:41;5.20;83.51
68648;SHT31;55632;51.962;16.116;2023-02-01T09:32:41;5.20;83.42
68648;SHT31;55632;51.962;16.116;2023-02-01T09:37:42;5.20;83.34
68648;SHT31;55632;51.962;16.116;2023-02-01T09:42:46;5.21;83.43
68648;SHT31;55632;51.962;16.116;2023-02-01T09:47:57;5.17;83.56
68648;SHT31;55632;51.962;16.116;2023-02-01T09:53:12;5.14;83.85
68648;SHT31;55632;51.962;16.116;2023-02-01T09:58:24;5.16;84.10
68648;SHT31;55632;51.962;16.116;2023-02-01T10:03:29;5.18;84.34
68648;SHT31;55632;51.962;16.116;2023-02-01T10:13:59;5.26;84.48
68648;SHT31;55632;51.962;16.116;2023-02-01T10:24:49;5.26;84.49
68648;SHT31;55632;51.962;16.116;2023-02-01T10:30:06;5.28;84.60
68648;SHT31;55632;51.962;16.116;2023-02-01T10:35:21;5.27;84.64
68648;SHT31;55632;51.962;16.116;2023-02-01T10:40:24;5.24;84.77
68648;SHT31;55632;51.962;16.116;2023-02-01T10:45:29;5.17;84.94
68648;SHT31;55632;51.962;16.116;2023-02-01T10:50:56;5.11;85.21
68648;SHT31;55632;51.962;16.116;2023-02-01T10:56:09;5.06;85.45
68648;SHT31;55632;51.962;16.116;2023-02-01T11:01:23;4.99;85.59
68648;SHT31;55632;51.962;16.116;2023-02-01T11:06:30;4.92;85.82
68648;SHT31;55632;51.962;16.116;2023-02-01T11:11:33;4.85;86.12
68648;SHT31;55632;51.962;16.116;2023-02-01T11:16:37;4.83;86.40
68648;SHT31;55632;51.962;16.116;2023-02-01T11:21:38;4.79;86.54
68648;SHT31;55632;51.962;16.116;2023-02-01T11:26:39;4.76;86.89
68648;SHT31;55632;51.962;16.116;2023-02-01T11:31:41;4.75;87.05
68648;SHT31;55632;51.962;16.116;2023-02-01T11:36:46;4.79;87.28
68648;SHT31;55632;51.962;16.116;2023-02-01T12:08:16;4.83;87.69
68648;SHT31;55632;51.962;16.116;2023-02-01T12:45:36;5.13;87.73
68648;SHT31;55632;51.962;16.116;2023-02-01T12:50:50;5.18;87.79
68648;SHT31;55632;51.962;16.116;2023-02-01T12:55:55;5.18;87.70
68648;SHT31;55632;51.962;16.116;2023-02-01T13:11:24;5.38;87.55
68648;SHT31;55632;51.962;16.116;2023-02-01T13:21:34;5.42;87.09
68648;SHT31;55632;51.962;16.116;2023-02-01T13:26:36;5.48;87.13
68648;SHT31;55632;51.962;16.116;2023-02-01T13:42:05;5.38;86.84
68648;SHT31;55632;51.962;16.116;2023-02-01T13:52:36;5.35;86.79
68648;SHT31;55632;51.962;16.116;2023-02-01T13:57:40;5.41;86.65
68648;SHT31;55632;51.962;16.116;2023-02-01T14:13:13;5.44;86.43
68648;SHT31;55632;51.962;16.116;2023-02-01T14:23:40;5.44;86.09
68648;SHT31;55632;51.962;16.116;2023-02-01T14:28:48;5.41;85.99
68648;SHT31;55632;51.962;16.116;2023-02-01T14:33:58;5.39;85.95
68648;SHT31;55632;51.962;16.116;2023-02-01T14:38:59;5.37;86.03
68648;SHT31;55632;51.962;16.116;2023-02-01T14:49:05;5.32;86.03
68648;SHT31;55632;51.962;16.116;2023-02-01T14:54:11;5.31;85.91
68648;SHT31;55632;51.962;16.116;2023-02-01T14:59:15;5.34;85.94
68648;SHT31;55632;51.962;16.116;2023-02-01T15:04:18;5.38;85.89
68648;SHT31;55632;51.962;16.116;2023-02-01T15:09:28;5.37;85.79
68648;SHT31;55632;51.962;16.116;2023-02-01T15:14:35;5.38;85.76
68648;SHT31;55632;51.962;16.116;2023-02-01T15:19:36;5.31;85.77
68648;SHT31;55632;51.962;16.116;2023-02-01T15:24:37;5.31;85.98
68648;SHT31;55632;51.962;16.116;2023-02-01T15:29:38;5.21;86.14
68648;SHT31;55632;51.962;16.116;2023-02-01T15:34:49;5.11;86.15
68648;SHT31;55632;51.962;16.116;2023-02-01T15:45:19;4.82;86.48
68648;SHT31;55632;51.962;16.116;2023-02-01T15:50:20;4.71;86.81
68648;SHT31;55632;51.962;16.116;2023-02-01T15:55:37;4.66;87.08
68648;SHT31;55632;51.962;16.116;2023-02-01T16:00:46;4.55;87.25
68648;SHT31;55632;51.962;16.116;2023-02-01T16:05:55;4.51;87.42
68648;SHT31;55632;51.962;16.116;2023-02-01T16:16:13;4.41;87.47
68648;SHT31;55632;51.962;16.116;2023-02-01T16:21:14;4.31;87.58
68648;SHT31;55632;51.962;16.116;2023-02-01T16:26:15;4.25;87.68
68648;SHT31;55632;51.962;16.116;2023-02-01T16:31:18;4.18;87.63
68648;SHT31;55632;51.962;16.116;2023-02-01T16:36:20;4.10;87.67
68648;SHT31;55632;51.962;16.116;2023-02-01T16:41:23;3.99;87.78
68648;SHT31;55632;51.962;16.116;2023-02-01T16:46:26;3.90;87.85
68648;SHT31;55632;51.962;16.116;2023-02-01T16:51:32;3.82;87.91
68648;SHT31;55632;51.962;16.116;2023-02-01T16:56:33;3.71;88.08
68648;SHT31;55632;51.962;16.116;2023-02-01T17:01:36;3.69;88.20
68648;SHT31;55632;51.962;16.116;2023-02-01T17:06:41;3.60;88.36
68648;SHT31;55632;51.962;16.116;2023-02-01T17:11:42;3.58;88.59
68648;SHT31;55632;51.962;16.116;2023-02-01T17:16:44;3.54;88.67
68648;SHT31;55632;51.962;16.116;2023-02-01T17:21:48;3.55;88.91
68648;SHT31;55632;51.962;16.116;2023-02-01T17:26:52;3.60;89.17
68648;SHT31;55632;51.962;16.116;2023-02-01T17:31:53;3.65;89.48
68648;SHT31;55632;51.962;16.116;2023-02-01T17:36:54;3.71;89.61
68648;SHT31;55632;51.962;16.116;2023-02-01T17:41:55;3.77;89.76
68648;SHT31;55632;51.962;16.116;2023-02-01T17:46:56;3.79;89.71
68648;SHT31;55632;51.962;16.116;2023-02-01T17:51:58;3.79;89.83
68648;SHT31;55632;51.962;16.116;2023-02-01T17:57:00;3.85;89.91
68648;SHT31;55632;51.962;16.116;2023-02-01T18:02:03;3.85;90.01
68648;SHT31;55632;51.962;16.116;2023-02-01T18:07:03;3.86;90.14
68648;SHT31;55632;51.962;16.116;2023-02-01T18:12:04;3.89;90.15
68648;SHT31;55632;51.962;16.116;2023-02-01T18:17:06;3.92;90.13
68648;SHT31;55632;51.962;16.116;2023-02-01T18:22:20;3.93;90.26
68648;SHT31;55632;51.962;16.116;2023-02-01T18:27:22;3.96;90.39
68648;SHT31;55632;51.962;16.116;2023-02-01T18:32:23;3.95;90.48
68648;SHT31;55632;51.962;16.116;2023-02-01T18:37:24;3.96;90.51
68648;SHT31;55632;51.962;16.116;2023-02-01T18:42:25;3.97;90.58
68648;SHT31;55632;51.962;16.116;2023-02-01T18:47:26;3.95;90.71
68648;SHT31;55632;51.962;16.116;2023-02-01T18:52:27;3.96;90.72
68648;SHT31;55632;51.962;16.116;2023-02-01T18:57:28;3.96;90.78
68648;SHT31;55632;51.962;16.116;2023-02-01T19:02:28;3.97;90.88
68648;SHT31;55632;51.962;16.116;2023-02-01T19:07:29;3.96;90.87
68648;SHT31;55632;51.962;16.116;2023-02-01T19:12:31;3.99;90.97
68648;SHT31;55632;51.962;16.116;2023-02-01T19:17:39;4.02;90.89
68648;SHT31;55632;51.962;16.116;2023-02-01T19:22:40;3.96;90.89
68648;SHT31;55632;51.962;16.116;2023-02-01T19:27:42;3.95;90.72
68648;SHT31;55632;51.962;16.116;2023-02-01T19:32:43;3.90;90.64
68648;SHT31;55632;51.962;16.116;2023-02-01T19:37:46;3.88;90.50
68648;SHT31;55632;51.962;16.116;2023-02-01T19:42:48;3.82;90.40
68648;SHT31;55632;51.962;16.116;2023-02-01T19:47:49;3.77;90.39
68648;SHT31;55632;51.962;16.116;2023-02-01T19:52:50;3.72;90.44
68648;SHT31;55632;51.962;16.116;2023-02-01T19:57:50;3.68;90.40
68648;SHT31;55632;51.962;16.116;2023-02-01T20:02:52;3.62;90.33
68648;SHT31;55632;51.962;16.116;2023-02-01T20:07:56;3.60;90.32
68648;SHT31;55632;51.962;16.116;2023-02-01T20:12:57;3.57;90.37
68648;SHT31;55632;51.962;16.116;2023-02-01T20:17:59;3.54;90.42
68648;SHT31;55632;51.962;16.116;2023-02-01T20:22:59;3.45;90.38
68648;SHT31;55632;51.962;16.116;2023-02-01T20:28:03;3.43;90.31
68648;SHT31;55632;51.962;16.116;2023-02-01T20:33:04;3.40;90.42
68648;SHT31;55632;51.962;16.116;2023-02-01T20:38:05;3.36;90.53
68648;SHT31;55632;51.962;16.116;2023-02-01T20:43:07;3.34;90.63
68648;SHT31;55632;51.962;16.116;2023-02-01T20:48:09;3.34;90.83
68648;SHT31;55632;51.962;16.116;2023-02-01T20:53:10;3.36;90.91
68648;SHT31;55632;51.962;16.116;2023-02-01T20:58:12;3.38;90.97
68648;SHT31;55632;51.962;16.116;2023-02-01T21:03:13;3.40;91.12
68648;SHT31;55632;51.962;16.116;2023-02-01T21:08:15;3.40;91.16
68648;SHT31;55632;51.962;16.116;2023-02-01T21:13:16;3.47;91.16
68648;SHT31;55632;51.962;16.116;2023-02-01T21:18:17;3.50;91.31
68648;SHT31;55632;51.962;16.116;2023-02-01T21:23:18;3.55;91.33
68648;SHT31;55632;51.962;16.116;2023-02-01T21:28:19;3.58;91.33
68648;SHT31;55632;51.962;16.116;2023-02-01T21:33:20;3.62;91.36
68648;SHT31;55632;51.962;16.116;2023-02-01T21:38:20;3.69;91.31
68648;SHT31;55632;51.962;16.116;2023-02-01T21:43:21;3.74;91.32
68648;SHT31;55632;51.962;16.116;2023-02-01T21:48:22;3.77;91.19
68648;SHT31;55632;51.962;16.116;2023-02-01T21:53:23;3.82;91.12
68648;SHT31;55632;51.962;16.116;2023-02-01T21:58:24;3.86;91.04
68648;SHT31;55632;51.962;16.116;2023-02-01T22:03:24;3.90;90.96
68648;SHT31;55632;51.962;16.116;2023-02-01T22:08:26;3.95;90.88
68648;SHT31;55632;51.962;16.116;2023-02-01T22:13:28;3.99;90.91
68648;SHT31;55632;51.962;16.116;2023-02-01T22:18:28;4.02;90.84
68648;SHT31;55632;51.962;16.116;2023-02-01T22:23:30;4.03;90.83
68648;SHT31;55632;51.962;16.116;2023-02-01T22:28:31;4.09;90.75
68648;SHT31;55632;51.962;16.116;2023-02-01T22:33:32;4.13;90.66
68648;SHT31;55632;51.962;16.116;2023-02-01T22:38:34;4.13;90.59
68648;SHT31;55632;51.962;16.116;2023-02-01T22:43:36;4.17;90.48
68648;SHT31;55632;51.962;16.116;2023-02-01T22:48:38;4.18;90.25
68648;SHT31;55632;51.962;16.116;2023-02-01T22:53:40;4.20;90.10
68648;SHT31;55632;51.962;16.116;2023-02-01T22:58:40;4.21;89.94
68648;SHT31;55632;51.962;16.116;2023-02-01T23:03:41;4.24;89.70
68648;SHT31;55632;51.962;16.116;2023-02-01T23:08:43;4.23;89.51
68648;SHT31;55632;51.962;16.116;2023-02-01T23:13:44;4.25;89.17
68648;SHT31;55632;51.962;16.116;2023-02-01T23:18:44;4.25;89.11
68648;SHT31;55632;51.962;16.116;2023-02-01T23:23:46;4.29;89.02
68648;SHT31;55632;51.962;16.116;2023-02-01T23:28:48;4.27;88.90
68648;SHT31;55632;51.962;16.116;2023-02-01T23:33:54;4.29;88.79
68648;SHT31;55632;51.962;16.116;2023-02-01T23:38:56;4.29;88.55
68648;SHT31;55632;51.962;16.116;2023-02-01T23:43:56;4.27;88.37
68648;SHT31;55632;51.962;16.116;2023-02-01T23:48:58;4.31;88.10
68648;SHT31;55632;51.962;16.116;2023-02-01T23:53:59;4.30;88.01
68648;SHT31;55632;51.962;16.116;2023-02-01T23:59:03;4.31;87.86
